createdAt,value
2023-01-13T00:01:30.872Z,90.12
2023-01-13T00:04:01.024Z,90.17
2023-01-13T00:06:27.885Z,90.26
2023-01-13T00:08:59.369Z,90.28
2023-01-13T00:11:26.446Z,90.15
2023-01-13T00:13:55.926Z,90.66
2023-01-13T00:16:22.550Z,90.74
2023-01-13T00:18:51.198Z,90.51
2023-01-13T00:21:22.555Z,90.22
2023-01-13T00:23:49.565Z,90.75
2023-01-13T00:26:18.912Z,90.18
2023-01-13T00:28:50.221Z,90.92
2023-01-13T00:31:21.185Z,91.32
2023-01-13T00:33:53.516Z,91.44
2023-01-13T00:36:21.074Z,92.14
2023-01-13T00:38:50.442Z,93.26
2023-01-13T00:41:22.191Z,92.73
2023-01-13T00:43:51.576Z,92.14
2023-01-13T00:46:19.657Z,93.02
2023-01-13T00:48:52.920Z,92.43
2023-01-13T00:51:24.284Z,92.70
2023-01-13T00:53:51.947Z,91.62
2023-01-13T00:56:34.067Z,92.08
2023-01-13T00:59:07.139Z,92.76
2023-01-13T01:01:36.138Z,93.21
2023-01-13T01:04:07.230Z,93.94
2023-01-13T01:06:36.006Z,93.91
2023-01-13T01:09:03.205Z,94.09
2023-01-13T01:11:34.515Z,93.74
2023-01-13T01:14:03.355Z,94.25
2023-01-13T01:16:33.457Z,94.07
2023-01-13T01:19:03.734Z,93.96
2023-01-13T01:21:33.255Z,93.87
2023-01-13T01:24:01.639Z,92.95
2023-01-13T01:26:31.909Z,92.49
2023-01-13T01:29:02.277Z,92.52
2023-01-13T01:31:35.474Z,92.68
2023-01-13T01:34:02.546Z,92.76
2023-01-13T01:36:34.954Z,92.70
2023-01-13T01:39:01.617Z,93.15
2023-01-13T01:41:36.881Z,93.36
2023-01-13T01:44:25.142Z,93.19
2023-01-13T01:46:52.207Z,92.77
2023-01-13T01:49:24.279Z,92.09
2023-01-13T01:52:08.811Z,91.81
2023-01-13T01:54:35.303Z,91.60
2023-01-13T01:57:01.929Z,91.56
2023-01-13T01:59:32.071Z,90.95
2023-01-13T02:01:59.092Z,90.90
2023-01-13T02:04:33.133Z,90.99
2023-01-13T02:07:04.392Z,91.14
2023-01-13T02:09:31.229Z,90.81
2023-01-13T02:12:16.204Z,90.59
2023-01-13T02:14:44.347Z,90.82
2023-01-13T02:17:33.557Z,91.20
2023-01-13T02:20:27.832Z,91.37
2023-01-13T02:23:47.038Z,91.68
2023-01-13T02:26:16.692Z,91.44
2023-01-13T02:29:16.488Z,91.51
2023-01-13T02:31:48.334Z,91.58
2023-01-13T02:34:30.030Z,91.25
2023-01-13T02:37:02.303Z,90.93
2023-01-13T02:39:35.499Z,90.20
2023-01-13T02:42:51.802Z,90.26
2023-01-13T02:45:19.305Z,90.78
2023-01-13T02:47:50.628Z,91.29
2023-01-13T02:50:28.987Z,91.20
2023-01-13T02:53:02.333Z,91.59
2023-01-13T02:55:46.334Z,92.73
2023-01-13T02:58:20.653Z,92.35
2023-01-13T03:00:49.214Z,93.17
2023-01-13T03:03:15.873Z,92.65
2023-01-13T03:05:44.843Z,92.50
2023-01-13T03:08:22.744Z,92.51
2023-01-13T03:11:10.237Z,91.90
2023-01-13T03:13:55.621Z,91.67
2023-01-13T03:16:46.852Z,91.71
2023-01-13T03:20:04.362Z,91.59
2023-01-13T03:22:36.915Z,91.70
2023-01-13T03:25:18.401Z,91.65
2023-01-13T03:27:53.464Z,90.89
2023-01-13T03:30:30.888Z,91.04
2023-01-13T03:33:06.793Z,91.57
2023-01-13T03:35:56.151Z,91.11
2023-01-13T03:38:28.361Z,91.02
2023-01-13T03:40:59.627Z,91.12
2023-01-13T03:43:54.592Z,90.50
2023-01-13T03:46:41.324Z,90.06
2023-01-13T03:49:12.292Z,90.29
2023-01-13T03:51:45.584Z,90.38
2023-01-13T03:54:14.266Z,90.53
2023-01-13T03:56:54.719Z,90.21
2023-01-13T03:59:29.535Z,91.60
2023-01-13T04:02:14.175Z,90.82
2023-01-13T04:05:03.001Z,91.11
2023-01-13T04:07:44.809Z,90.74
2023-01-13T04:10:14.159Z,91.11
2023-01-13T04:13:01.039Z,91.38
2023-01-13T04:15:59.210Z,91.27
2023-01-13T04:18:27.806Z,91.14
2023-01-13T04:20:57.499Z,91.02
2023-01-13T04:23:24.651Z,91.54
2023-01-13T04:25:51.817Z,91.17
2023-01-13T04:28:21.692Z,91.49
2023-01-13T04:30:51.137Z,91.87
2023-01-13T04:33:19.514Z,92.11
2023-01-13T04:35:46.949Z,91.62
2023-01-13T04:38:16.672Z,91.17
2023-01-13T04:40:43.474Z,91.13
2023-01-13T04:43:12.438Z,91.32
2023-01-13T04:45:39.197Z,91.35
2023-01-13T04:48:09.015Z,91.37
2023-01-13T04:50:40.541Z,91.07
2023-01-13T04:53:07.489Z,90.96
2023-01-13T04:55:34.179Z,90.63
2023-01-13T04:58:10.282Z,91.25
2023-01-13T05:00:39.693Z,91.00
2023-01-13T05:03:06.251Z,90.56
2023-01-13T05:05:35.529Z,90.34
2023-01-13T05:08:02.192Z,89.88
2023-01-13T05:10:28.868Z,90.75
2023-01-13T05:13:13.951Z,92.27
2023-01-13T05:16:21.295Z,91.39
2023-01-13T05:18:47.858Z,89.84
2023-01-13T05:21:34.393Z,90.21
2023-01-13T05:24:19.782Z,90.00
2023-01-13T05:26:50.898Z,90.70
2023-01-13T05:29:19.682Z,91.20
2023-01-13T05:31:48.697Z,90.57
2023-01-13T05:34:15.315Z,91.08
2023-01-13T05:36:44.147Z,91.09
2023-01-13T05:39:10.722Z,91.89
2023-01-13T05:41:55.579Z,92.20
2023-01-13T05:44:25.670Z,92.73
2023-01-13T05:46:52.277Z,93.71
2023-01-13T05:49:18.847Z,92.92
2023-01-13T05:51:45.585Z,92.93
2023-01-13T05:54:14.424Z,92.82
2023-01-13T05:56:41.050Z,92.50
2023-01-13T05:59:10.082Z,91.95
2023-01-13T06:01:37.221Z,91.31
2023-01-13T06:04:09.171Z,91.43
2023-01-13T06:06:35.732Z,91.64
2023-01-13T06:09:04.579Z,90.71
2023-01-13T06:11:33.396Z,91.21
2023-01-13T06:14:03.098Z,90.96
2023-01-13T06:16:31.945Z,90.83
2023-01-13T06:19:01.533Z,91.24
2023-01-13T06:21:32.399Z,90.81
2023-01-13T06:24:02.003Z,89.97
2023-01-13T06:26:36.221Z,90.50
2023-01-13T06:29:02.796Z,90.66
2023-01-13T06:31:33.392Z,91.12
2023-01-13T06:34:08.915Z,91.35
2023-01-13T06:36:49.764Z,91.38
2023-01-13T06:39:19.877Z,91.46
2023-01-13T06:42:08.208Z,92.08
2023-01-13T06:44:34.841Z,92.42
2023-01-13T06:47:06.253Z,94.48
2023-01-13T06:49:35.288Z,94.26
2023-01-13T06:52:01.870Z,93.22
2023-01-13T06:54:35.587Z,92.94
2023-01-13T06:57:02.592Z,92.44
2023-01-13T06:59:29.318Z,93.76
2023-01-13T07:01:56.145Z,94.75
2023-01-13T07:04:22.852Z,95.07
2023-01-13T07:06:51.640Z,94.43
2023-01-13T07:09:18.544Z,94.14
2023-01-13T07:11:45.176Z,93.27
2023-01-13T07:14:32.777Z,93.52
2023-01-13T07:16:59.377Z,94.03
2023-01-13T07:19:28.467Z,94.86
2023-01-13T07:21:59.894Z,95.35
2023-01-13T07:24:28.729Z,94.86
2023-01-13T07:26:55.298Z,95.08
2023-01-13T07:29:24.446Z,94.30
2023-01-13T07:31:53.178Z,93.89
2023-01-13T07:34:19.815Z,93.45
2023-01-13T07:36:51.418Z,93.20
2023-01-13T07:39:18.062Z,93.14
2023-01-13T07:42:03.312Z,92.69
2023-01-13T07:44:30.046Z,93.37
2023-01-13T07:46:58.883Z,93.02
2023-01-13T07:49:27.951Z,92.74
2023-01-13T07:51:56.785Z,91.64
2023-01-13T07:54:35.237Z,91.72
2023-01-13T07:57:06.607Z,91.72
2023-01-13T07:59:35.409Z,91.57
2023-01-13T08:02:04.655Z,90.76
2023-01-13T08:04:31.231Z,89.42
2023-01-13T08:07:00.162Z,89.48
2023-01-13T08:09:26.761Z,89.48
2023-01-13T08:12:14.597Z,89.20
2023-01-13T08:14:41.058Z,90.01
2023-01-13T08:17:10.711Z,90.49
2023-01-13T08:19:37.271Z,90.86
2023-01-13T08:22:04.030Z,91.86
2023-01-13T08:24:32.958Z,91.57
2023-01-13T08:26:59.515Z,91.01
2023-01-13T08:29:26.113Z,91.17
2023-01-13T08:31:55.177Z,91.75
2023-01-13T08:34:21.783Z,91.75
2023-01-13T08:36:49.959Z,92.35
2023-01-13T08:39:19.102Z,91.07
2023-01-13T08:41:58.493Z,90.27
2023-01-13T08:44:30.407Z,90.40
2023-01-13T08:46:57.851Z,90.47
2023-01-13T08:49:27.877Z,90.79
2023-01-13T08:51:59.380Z,91.43
2023-01-13T08:54:25.987Z,92.19
2023-01-13T08:56:57.502Z,91.08
2023-01-13T08:59:26.514Z,89.94
2023-01-13T09:01:53.193Z,89.96
2023-01-13T09:04:23.199Z,90.42
2023-01-13T09:06:52.239Z,89.31
2023-01-13T09:09:18.905Z,89.99
2023-01-13T09:12:06.922Z,90.35
2023-01-13T09:14:36.081Z,90.32
2023-01-13T09:17:07.534Z,89.75
2023-01-13T09:19:34.449Z,90.23
2023-01-13T09:22:03.944Z,90.22
2023-01-13T09:24:35.308Z,89.85
2023-01-13T09:27:07.133Z,90.14
2023-01-13T09:29:33.906Z,89.35
2023-01-13T09:32:02.567Z,89.38
2023-01-13T09:34:47.752Z,90.23
2023-01-13T09:37:16.564Z,89.87
2023-01-13T09:39:43.218Z,89.08
2023-01-13T09:42:50.341Z,89.21
2023-01-13T09:45:32.644Z,90.23
2023-01-13T09:48:25.233Z,89.85
2023-01-13T09:50:55.124Z,90.19
2023-01-13T09:53:32.336Z,90.59
2023-01-13T09:56:00.978Z,91.24
2023-01-13T09:58:30.333Z,90.64
2023-01-13T10:01:11.880Z,91.17
2023-01-13T10:03:38.668Z,90.84
2023-01-13T10:06:36.551Z,91.13
2023-01-13T10:09:05.932Z,90.58
2023-01-13T10:11:57.739Z,90.14
2023-01-13T10:14:31.001Z,90.11
2023-01-13T10:17:22.589Z,90.51
2023-01-13T10:19:59.739Z,90.28
2023-01-13T10:22:47.830Z,90.18
2023-01-13T10:25:27.758Z,90.80
2023-01-13T10:27:56.462Z,91.04
2023-01-13T10:30:35.071Z,91.05
2023-01-13T10:33:17.569Z,91.07
2023-01-13T10:35:57.809Z,90.61
2023-01-13T10:38:27.112Z,90.56
2023-01-13T10:40:58.483Z,91.12
2023-01-13T10:43:25.817Z,90.41
2023-01-13T10:45:58.786Z,89.92
2023-01-13T10:48:36.232Z,90.73
2023-01-13T10:51:29.064Z,90.71
2023-01-13T10:54:14.733Z,90.31
2023-01-13T10:56:44.964Z,90.50
2023-01-13T10:59:24.827Z,90.28
2023-01-13T11:02:01.158Z,90.53
2023-01-13T11:04:35.110Z,91.66
2023-01-13T11:07:06.627Z,91.05
2023-01-13T11:09:33.643Z,89.83
2023-01-13T11:12:00.406Z,90.10
2023-01-13T11:14:41.928Z,90.21
2023-01-13T11:17:20.430Z,90.90
2023-01-13T11:19:53.983Z,90.54
2023-01-13T11:22:28.831Z,90.25
2023-01-13T11:24:58.919Z,90.75
2023-01-13T11:27:31.393Z,90.51
2023-01-13T11:30:01.149Z,90.08
2023-01-13T11:32:34.953Z,88.77
2023-01-13T11:35:15.421Z,89.17
2023-01-13T11:37:47.755Z,90.47
2023-01-13T11:40:25.991Z,90.14
2023-01-13T11:43:18.311Z,89.95
2023-01-13T11:45:59.726Z,89.51
2023-01-13T11:48:35.726Z,89.35
2023-01-13T11:51:16.737Z,89.74
2023-01-13T11:53:49.284Z,89.86
2023-01-13T11:56:30.457Z,89.32
2023-01-13T11:59:12.291Z,90.30
2023-01-13T12:01:44.920Z,89.13
2023-01-13T12:04:29.361Z,88.85
2023-01-13T12:07:19.236Z,88.88
2023-01-13T12:10:34.336Z,88.04
2023-01-13T12:13:07.115Z,88.91
2023-01-13T12:15:56.596Z,89.72
2023-01-13T12:18:38.318Z,89.64
2023-01-13T12:21:22.175Z,89.88
2023-01-13T12:23:51.657Z,90.34
2023-01-13T12:26:18.742Z,94.29
2023-01-13T12:28:56.965Z,93.22
2023-01-13T12:31:25.134Z,89.12
2023-01-13T12:33:54.558Z,87.22
2023-01-13T12:36:33.121Z,87.50
2023-01-13T12:39:25.777Z,86.07
2023-01-13T12:42:13.602Z,86.80
2023-01-13T12:45:00.320Z,86.78
2023-01-13T12:47:38.017Z,87.54
2023-01-13T12:50:22.936Z,87.85
2023-01-13T12:52:56.628Z,88.58
2023-01-13T12:55:35.208Z,88.74
2023-01-13T12:58:04.781Z,88.46
2023-01-13T13:01:00.109Z,88.32
2023-01-13T13:03:37.235Z,88.13
2023-01-13T13:06:06.245Z,88.31
2023-01-13T13:08:51.146Z,87.81
2023-01-13T13:11:40.731Z,87.87
2023-01-13T13:14:13.759Z,88.52
2023-01-13T13:16:51.156Z,88.85
2023-01-13T13:19:17.717Z,88.56
2023-01-13T13:22:11.833Z,88.32
2023-01-13T13:24:44.320Z,88.02
2023-01-13T13:27:21.938Z,88.46
2023-01-13T13:30:06.574Z,88.37
2023-01-13T13:32:41.613Z,88.55
2023-01-13T13:35:08.168Z,89.14
2023-01-13T13:38:17.817Z,88.34
2023-01-13T13:41:06.956Z,89.12
2023-01-13T13:44:19.055Z,87.83
2023-01-13T13:46:49.478Z,88.36
2023-01-13T13:49:36.473Z,88.18
2023-01-13T13:52:10.938Z,88.48
2023-01-13T13:54:44.125Z,89.40
2023-01-13T13:57:19.789Z,89.23
2023-01-13T13:59:54.112Z,88.86
2023-01-13T14:02:36.478Z,88.31
2023-01-13T14:05:30.537Z,87.26
2023-01-13T14:08:03.935Z,89.19
2023-01-13T14:10:37.352Z,89.00
2023-01-13T14:13:35.412Z,89.01
2023-01-13T14:16:07.293Z,88.22
2023-01-13T14:18:45.831Z,88.45
2023-01-13T14:21:20.357Z,88.91
2023-01-13T14:24:22.480Z,90.19
2023-01-13T14:26:53.648Z,89.54
2023-01-13T14:29:24.517Z,88.77
2023-01-13T14:31:57.680Z,88.75
2023-01-13T14:34:33.302Z,87.47
2023-01-13T14:37:01.345Z,87.32
2023-01-13T14:39:40.475Z,87.50
2023-01-13T14:42:18.991Z,87.95
2023-01-13T14:44:49.873Z,88.22
2023-01-13T14:47:23.013Z,88.14
2023-01-13T14:50:04.757Z,88.30
2023-01-13T14:52:40.270Z,88.34
2023-01-13T14:55:10.335Z,89.09
2023-01-13T14:57:41.463Z,88.95
2023-01-13T15:00:14.189Z,88.61
2023-01-13T15:02:53.566Z,89.07
2023-01-13T15:05:22.561Z,88.55
2023-01-13T15:08:14.703Z,89.37
2023-01-13T15:10:49.281Z,88.49
2023-01-13T15:13:32.255Z,88.87
2023-01-13T15:16:01.492Z,88.72
2023-01-13T15:18:30.485Z,89.50
2023-01-13T15:20:57.217Z,89.17
2023-01-13T15:23:26.031Z,89.30
2023-01-13T15:25:54.998Z,90.08
2023-01-13T15:28:28.280Z,90.23
2023-01-13T15:30:58.149Z,90.45
2023-01-13T15:33:24.796Z,90.30
2023-01-13T15:35:55.385Z,90.28
2023-01-13T15:38:23.912Z,89.62
2023-01-13T15:40:55.761Z,89.61
2023-01-13T15:43:42.347Z,89.29
2023-01-13T15:46:19.997Z,89.25
2023-01-13T15:48:46.885Z,90.70
2023-01-13T15:51:24.269Z,90.68
2023-01-13T15:53:53.101Z,90.74
2023-01-13T15:56:26.639Z,90.95
2023-01-13T15:58:53.594Z,91.18
2023-01-13T16:01:20.810Z,91.14
2023-01-13T16:03:47.669Z,91.04
2023-01-13T16:06:20.868Z,91.01
2023-01-13T16:08:47.728Z,90.66
2023-01-13T16:11:16.843Z,90.00
2023-01-13T16:13:45.884Z,89.29
2023-01-13T16:16:27.072Z,89.51
2023-01-13T16:18:54.480Z,90.06
2023-01-13T16:21:22.235Z,89.69
2023-01-13T16:23:49.979Z,88.45
2023-01-13T16:26:25.588Z,89.33
2023-01-13T16:28:54.549Z,90.06
2023-01-13T16:31:26.706Z,90.59
2023-01-13T16:33:56.047Z,90.10
2023-01-13T16:36:24.925Z,89.12
2023-01-13T16:38:57.262Z,90.03
2023-01-13T16:41:25.101Z,90.24
2023-01-13T16:43:52.704Z,89.29
2023-01-13T16:47:09.312Z,89.54
2023-01-13T16:49:40.737Z,88.82
2023-01-13T16:52:49.219Z,89.19
2023-01-13T16:55:28.014Z,88.45
2023-01-13T16:58:07.531Z,88.92
2023-01-13T17:00:35.366Z,88.21
2023-01-13T17:03:05.193Z,89.00
2023-01-13T17:05:31.823Z,88.77
2023-01-13T17:08:07.975Z,88.86
2023-01-13T17:10:52.916Z,89.47
2023-01-13T17:13:48.589Z,88.49
2023-01-13T17:16:17.909Z,88.67
2023-01-13T17:18:48.192Z,88.57
2023-01-13T17:21:42.862Z,88.94
2023-01-13T17:24:12.398Z,88.62
2023-01-13T17:26:48.981Z,88.95
2023-01-13T17:29:22.299Z,89.10
2023-01-13T17:31:52.685Z,89.55
2023-01-13T17:34:20.268Z,89.71
2023-01-13T17:36:46.976Z,90.47
2023-01-13T17:39:19.083Z,90.99
2023-01-13T17:42:01.386Z,91.91
2023-01-13T17:44:31.004Z,91.96
2023-01-13T17:47:00.336Z,91.00
2023-01-13T17:49:26.815Z,91.98
2023-01-13T17:51:53.515Z,92.05
2023-01-13T17:54:21.121Z,91.86
2023-01-13T17:56:56.481Z,93.21
2023-01-13T17:59:24.307Z,93.35
2023-01-13T18:01:53.531Z,92.50
2023-01-13T18:07:48.569Z,90.53
2023-01-13T18:10:17.476Z,90.88
2023-01-13T18:12:44.063Z,89.74
2023-01-13T18:15:12.688Z,89.07
2023-01-13T18:17:39.259Z,88.37
2023-01-13T18:20:24.711Z,87.84
2023-01-13T18:23:14.782Z,88.04
2023-01-13T18:28:50.803Z,88.03
2023-01-13T18:31:21.840Z,89.05
2023-01-13T18:33:48.358Z,89.36
2023-01-13T18:36:17.253Z,90.52
2023-01-13T18:38:46.388Z,90.23
2023-01-13T18:41:31.470Z,89.96
2023-01-13T18:44:28.888Z,89.76
2023-01-13T18:46:57.954Z,89.17
2023-01-13T18:49:26.771Z,89.81
2023-01-13T18:51:56.068Z,89.13
2023-01-13T18:54:22.983Z,88.72
2023-01-13T18:56:50.157Z,89.16
2023-01-13T18:59:26.752Z,89.36
2023-01-13T19:01:53.524Z,89.25
2023-01-13T19:04:22.306Z,88.39
2023-01-13T19:06:51.921Z,88.72
2023-01-13T19:09:22.751Z,89.23
2023-01-13T19:11:50.502Z,91.32
2023-01-13T19:14:34.122Z,93.75
2023-01-13T19:17:03.612Z,89.23
2023-01-13T19:19:31.579Z,86.57
2023-01-13T19:22:03.254Z,86.17
2023-01-13T19:24:32.183Z,85.29
2023-01-13T19:26:58.901Z,86.57
2023-01-13T19:29:28.100Z,86.31
2023-01-13T19:32:00.036Z,85.92
2023-01-13T19:34:26.920Z,86.58
2023-01-13T19:36:53.943Z,86.61
2023-01-13T19:39:21.590Z,87.56
2023-01-13T19:42:28.326Z,88.14
2023-01-13T19:45:25.174Z,87.39
2023-01-13T19:47:55.271Z,88.14
2023-01-13T19:51:08.561Z,88.26
2023-01-13T19:53:38.195Z,88.26
2023-01-13T19:56:10.638Z,87.24
2023-01-13T20:01:41.509Z,88.66
2023-01-13T20:04:21.961Z,88.42
2023-01-13T20:06:48.669Z,88.68
2023-01-13T20:09:23.710Z,88.92
2023-01-13T20:12:17.223Z,88.78
2023-01-13T20:14:51.645Z,88.96
2023-01-13T20:17:44.190Z,88.35
2023-01-13T20:20:16.900Z,87.74
2023-01-13T20:23:13.269Z,88.13
2023-01-13T20:25:51.713Z,88.02
2023-01-13T20:28:20.129Z,89.57
2023-01-13T20:31:27.433Z,89.69
2023-01-13T20:34:05.407Z,88.92
2023-01-13T20:36:48.809Z,89.14
2023-01-13T20:39:32.833Z,90.02
2023-01-13T20:42:18.218Z,90.16
2023-01-13T20:44:47.413Z,89.50
2023-01-13T20:47:21.832Z,88.43
2023-01-13T20:50:44.589Z,88.95
2023-01-13T20:53:11.343Z,88.86
2023-01-13T20:55:40.005Z,89.34
2023-01-13T20:58:06.766Z,89.16
2023-01-13T21:00:48.567Z,89.11
2023-01-13T21:03:24.707Z,89.62
2023-01-13T21:05:54.060Z,89.48
2023-01-13T21:08:20.797Z,89.18
2023-01-13T21:10:49.939Z,89.50
2023-01-13T21:13:35.273Z,89.40
2023-01-13T21:16:05.032Z,89.50
2023-01-13T21:18:52.807Z,89.32
2023-01-13T21:21:22.247Z,90.74
2023-01-13T21:23:58.428Z,91.33
2023-01-13T21:26:25.189Z,90.78
2023-01-13T21:28:59.302Z,92.23
2023-01-13T21:31:27.158Z,91.68
2023-01-13T21:33:57.902Z,91.46
2023-01-13T21:36:25.092Z,90.80
2023-01-13T21:38:52.902Z,91.58
2023-01-13T21:41:40.041Z,94.28
2023-01-13T21:44:34.205Z,94.93
2023-01-13T21:47:22.036Z,95.49
2023-01-13T21:49:48.668Z,95.75
2023-01-13T21:52:16.010Z,94.86
2023-01-13T21:55:01.324Z,94.06
2023-01-13T21:57:35.427Z,93.21
2023-01-13T22:00:02.238Z,93.65
2023-01-13T22:02:39.902Z,93.35
2023-01-13T22:05:08.597Z,93.57
2023-01-13T22:07:36.873Z,93.03
2023-01-13T22:10:07.038Z,93.37
2023-01-13T22:12:34.083Z,92.95
2023-01-13T22:15:03.622Z,91.80
2023-01-13T22:17:32.304Z,91.00
2023-01-13T22:20:03.303Z,91.72
2023-01-13T22:22:35.263Z,93.34
2023-01-13T22:25:23.461Z,94.47
2023-01-13T22:27:50.073Z,94.40
2023-01-13T22:30:22.015Z,94.83
2023-01-13T22:32:53.356Z,95.28
2023-01-13T22:35:20.829Z,95.24
2023-01-13T22:37:47.564Z,94.26
2023-01-13T22:40:17.141Z,93.50
2023-01-13T22:42:48.329Z,93.40
2023-01-13T22:45:15.326Z,93.14
2023-01-13T22:47:42.676Z,92.49
2023-01-13T22:50:13.309Z,91.65
2023-01-13T22:52:40.347Z,91.83
2023-01-13T22:55:07.644Z,92.58
2023-01-13T22:57:46.699Z,93.82
2023-01-13T23:00:15.069Z,93.29
2023-01-13T23:02:42.109Z,93.35
2023-01-13T23:05:13.907Z,92.69
2023-01-13T23:07:40.965Z,92.46
2023-01-13T23:10:07.963Z,92.03
2023-01-13T23:12:39.400Z,91.98
2023-01-13T23:15:06.564Z,92.52
2023-01-13T23:17:33.456Z,92.54
2023-01-13T23:20:03.562Z,91.59
2023-01-13T23:22:30.652Z,91.26
2023-01-13T23:24:57.673Z,91.28
2023-01-13T23:27:24.775Z,91.57
2023-01-13T23:29:51.484Z,92.05
2023-01-13T23:32:18.514Z,91.89
2023-01-13T23:34:45.517Z,92.32
2023-01-13T23:37:12.343Z,92.26
2023-01-13T23:39:39.135Z,92.59
2023-01-13T23:42:06.166Z,93.17
2023-01-13T23:44:33.234Z,93.78
2023-01-13T23:46:59.971Z,93.82
2023-01-13T23:49:26.946Z,93.65
2023-01-13T23:51:53.626Z,93.93
2023-01-13T23:54:20.643Z,94.17
2023-01-13T23:56:49.824Z,93.81
2023-01-13T23:59:16.535Z,92.63
